createdAt,value
2018-12-21T00:00:05.142Z,90.35
2018-12-21T00:01:05.063Z,90.25
2018-12-21T00:02:05.151Z,90.56
2018-12-21T00:03:05.391Z,90.45
2018-12-21T00:04:14.289Z,90.35
2018-12-21T00:05:05.004Z,90.25
2018-12-21T00:06:04.986Z,90.04
2018-12-21T00:07:04.982Z,89.94
2018-12-21T00:08:05.111Z,89.73
2018-12-21T00:09:05.398Z,90.04
2018-12-21T00:10:04.948Z,89.56
2018-12-21T00:11:05.031Z,90.35
2018-12-21T00:12:06.406Z,90.14
2018-12-21T00:13:06.163Z,90.35
2018-12-21T00:14:04.904Z,90.29
2018-12-21T00:15:05.577Z,90.60
2018-12-21T00:16:04.901Z,90.25
2018-12-21T00:17:05.573Z,90.60
2018-12-21T00:18:04.877Z,90.39
2018-12-21T00:19:05.976Z,90.50
2018-12-21T00:20:04.892Z,90.60
2018-12-21T00:21:05.142Z,90.70
2018-12-21T00:22:04.899Z,90.74
2018-12-21T00:23:05.579Z,90.80
2018-12-21T00:24:04.885Z,90.39
2018-12-21T00:25:04.852Z,90.64
2018-12-21T00:26:04.848Z,90.91
2018-12-21T00:27:04.861Z,91.26
2018-12-21T00:28:04.846Z,91.05
2018-12-21T00:29:19.635Z,91.16
2018-12-21T00:30:04.727Z,91.36
2018-12-21T00:31:04.828Z,91.16
2018-12-21T00:32:04.702Z,90.95
2018-12-21T00:33:04.692Z,91.36
2018-12-21T00:34:06.339Z,91.26
2018-12-21T00:35:05.051Z,91.57
2018-12-21T00:36:04.657Z,91.67
2018-12-21T00:37:05.501Z,91.82
2018-12-21T00:38:05.739Z,91.88
2018-12-21T00:39:04.625Z,91.93
2018-12-21T00:40:04.616Z,91.82
2018-12-21T00:41:04.636Z,91.93
2018-12-21T00:42:05.622Z,91.93
2018-12-21T00:43:05.169Z,92.13
2018-12-21T00:44:04.569Z,92.13
2018-12-21T00:45:04.573Z,91.72
2018-12-21T00:46:04.569Z,91.61
2018-12-21T00:47:04.543Z,92.34
2018-12-21T00:48:05.005Z,92.24
2018-12-21T00:49:04.577Z,92.18
2018-12-21T00:50:04.505Z,92.49
2018-12-21T00:51:04.592Z,92.28
2018-12-21T00:52:04.486Z,92.24
2018-12-21T00:53:04.505Z,92.38
2018-12-21T00:54:04.614Z,92.55
2018-12-21T00:55:06.250Z,92.28
2018-12-21T00:56:04.449Z,92.38
2018-12-21T00:57:04.433Z,92.59
2018-12-21T00:58:04.608Z,92.90
2018-12-21T00:59:04.407Z,92.69
2018-12-21T01:00:04.401Z,92.38
2018-12-21T01:01:04.394Z,92.49
2018-12-21T01:02:04.373Z,92.49
2018-12-21T01:03:04.361Z,92.49
2018-12-21T01:04:04.550Z,92.59
2018-12-21T01:05:04.345Z,92.80
2018-12-21T01:06:04.349Z,92.74
2018-12-21T01:07:04.323Z,92.74
2018-12-21T01:08:04.480Z,92.74
2018-12-21T01:09:04.295Z,92.69
2018-12-21T01:10:05.157Z,92.38
2018-12-21T01:11:04.291Z,92.69
2018-12-21T01:12:04.272Z,92.49
2018-12-21T01:13:04.259Z,92.74
2018-12-21T01:14:04.240Z,92.80
2018-12-21T01:15:04.230Z,92.59
2018-12-21T01:16:07.483Z,92.49
2018-12-21T01:17:04.234Z,92.49
2018-12-21T01:18:04.206Z,92.69
2018-12-21T01:19:04.195Z,92.69
2018-12-21T01:20:04.179Z,92.69
2018-12-21T01:21:04.168Z,92.84
2018-12-21T01:22:04.586Z,92.28
2018-12-21T01:23:08.808Z,91.70
2018-12-21T01:24:04.200Z,92.28
2018-12-21T01:25:04.250Z,91.66
2018-12-21T01:26:04.105Z,92.07
2018-12-21T01:27:04.368Z,92.07
2018-12-21T01:28:05.522Z,91.97
2018-12-21T01:29:04.075Z,91.97
2018-12-21T01:30:04.080Z,91.76
2018-12-21T01:31:04.054Z,91.55
2018-12-21T01:32:04.377Z,91.45
2018-12-21T01:33:04.025Z,91.14
2018-12-21T01:34:04.016Z,91.66
2018-12-21T01:35:04.011Z,91.35
2018-12-21T01:36:03.995Z,91.20
2018-12-21T01:37:05.987Z,91.20
2018-12-21T01:38:04.360Z,91.20
2018-12-21T01:39:03.961Z,90.68
2018-12-21T01:40:04.062Z,91.20
2018-12-21T01:41:03.946Z,90.68
2018-12-21T01:42:03.936Z,90.47
2018-12-21T01:43:03.926Z,90.68
2018-12-21T01:44:04.528Z,90.78
2018-12-21T01:45:03.899Z,90.68
2018-12-21T01:46:03.889Z,90.78
2018-12-21T01:47:03.884Z,90.47
2018-12-21T01:48:03.919Z,90.47
2018-12-21T01:49:03.856Z,90.33
2018-12-21T01:50:03.986Z,90.47
2018-12-21T01:51:03.878Z,90.06
2018-12-21T01:52:03.817Z,89.65
2018-12-21T01:53:03.912Z,90.16
2018-12-21T01:54:03.804Z,89.54
2018-12-21T01:55:03.835Z,89.86
2018-12-21T01:56:03.882Z,90.02
2018-12-21T01:57:04.121Z,89.54
2018-12-21T01:58:06.245Z,90.06
2018-12-21T01:59:03.759Z,90.06
2018-12-21T02:00:03.739Z,90.06
2018-12-21T02:01:03.726Z,90.16
2018-12-21T02:02:03.711Z,89.81
2018-12-21T02:03:04.137Z,89.96
2018-12-21T02:04:03.685Z,89.86
2018-12-21T02:05:03.677Z,89.71
2018-12-21T02:06:03.670Z,89.81
2018-12-21T02:07:03.655Z,89.50
2018-12-21T02:08:03.642Z,89.65
2018-12-21T02:09:04.080Z,89.75
2018-12-21T02:10:03.620Z,89.75
2018-12-21T02:11:03.611Z,89.50
2018-12-21T02:12:03.604Z,89.40
2018-12-21T02:13:03.586Z,89.81
2018-12-21T02:14:03.733Z,89.40
2018-12-21T02:15:03.947Z,89.71
2018-12-21T02:16:03.825Z,89.54
2018-12-21T02:17:03.561Z,89.71
2018-12-21T02:18:03.533Z,89.09
2018-12-21T02:19:07.553Z,89.09
2018-12-21T02:20:03.513Z,89.81
2018-12-21T02:21:03.499Z,89.50
2018-12-21T02:22:03.487Z,89.71
2018-12-21T02:23:03.479Z,89.50
2018-12-21T02:24:03.470Z,89.50
2018-12-21T02:25:03.630Z,89.50
2018-12-21T02:26:03.511Z,89.29
2018-12-21T02:27:03.431Z,89.61
2018-12-21T02:28:03.421Z,89.71
2018-12-21T02:29:03.514Z,89.61
2018-12-21T02:30:03.399Z,89.61
2018-12-21T02:31:03.992Z,89.61
2018-12-21T02:32:03.384Z,89.40
2018-12-21T02:33:03.400Z,89.50
2018-12-21T02:34:03.358Z,89.19
2018-12-21T02:35:03.346Z,89.40
2018-12-21T02:36:03.336Z,89.19
2018-12-21T02:37:03.524Z,89.09
2018-12-21T02:38:03.315Z,89.40
2018-12-21T02:39:03.318Z,89.19
2018-12-21T02:40:05.541Z,89.50
2018-12-21T02:41:03.280Z,89.19
2018-12-21T02:42:03.280Z,89.40
2018-12-21T02:43:03.527Z,89.61
2018-12-21T02:44:03.413Z,89.40
2018-12-21T02:45:31.305Z,89.56
2018-12-21T02:46:03.357Z,89.29
2018-12-21T02:47:03.365Z,89.09
2018-12-21T02:48:03.202Z,89.67
2018-12-21T02:49:03.200Z,89.56
2018-12-21T02:50:03.223Z,89.29
2018-12-21T02:51:03.172Z,89.15
2018-12-21T02:52:05.708Z,89.15
2018-12-21T02:53:03.479Z,88.94
2018-12-21T02:54:03.143Z,89.04
2018-12-21T02:55:03.130Z,89.25
2018-12-21T02:56:03.309Z,89.36
2018-12-21T02:57:03.114Z,89.25
2018-12-21T02:58:03.100Z,89.56
2018-12-21T02:59:03.543Z,89.46
2018-12-21T03:00:03.072Z,89.56
2018-12-21T03:01:05.678Z,89.15
2018-12-21T03:02:03.068Z,89.25
2018-12-21T03:03:03.201Z,88.94
2018-12-21T03:04:03.040Z,89.36
2018-12-21T03:05:03.572Z,89.32
2018-12-21T03:06:03.011Z,89.15
2018-12-21T03:07:02.999Z,89.36
2018-12-21T03:08:02.988Z,89.25
2018-12-21T03:09:03.688Z,88.90
2018-12-21T03:10:03.016Z,89.15
2018-12-21T03:11:02.984Z,89.04
2018-12-21T03:12:02.955Z,88.80
2018-12-21T03:13:02.930Z,88.80
2018-12-21T03:14:02.953Z,89.01
2018-12-21T03:15:03.171Z,88.70
2018-12-21T03:16:02.982Z,88.94
2018-12-21T03:17:02.928Z,88.74
2018-12-21T03:18:03.114Z,89.01
2018-12-21T03:19:02.885Z,88.90
2018-12-21T03:20:03.119Z,88.94
2018-12-21T03:21:03.437Z,88.59
2018-12-21T03:22:14.279Z,88.59
2018-12-21T03:23:03.887Z,88.80
2018-12-21T03:24:03.154Z,88.80
2018-12-21T03:25:02.961Z,88.70
2018-12-21T03:26:04.256Z,88.80
2018-12-21T03:27:02.907Z,88.80
2018-12-21T03:28:02.917Z,88.59
2018-12-21T03:29:02.760Z,89.01
2018-12-21T03:30:02.753Z,88.90
2018-12-21T03:31:02.740Z,89.22
2018-12-21T03:32:03.161Z,89.01
2018-12-21T03:33:02.717Z,89.11
2018-12-21T03:34:02.704Z,89.48
2018-12-21T03:35:02.726Z,89.83
2018-12-21T03:36:02.704Z,89.83
2018-12-21T03:37:03.038Z,89.73
2018-12-21T03:38:03.413Z,90.14
2018-12-21T03:39:02.698Z,90.35
2018-12-21T03:40:02.635Z,90.04
2018-12-21T03:41:02.633Z,90.56
2018-12-21T03:42:03.022Z,90.45
2018-12-21T03:43:02.605Z,90.66
2018-12-21T03:44:03.085Z,90.66
2018-12-21T03:45:03.324Z,90.87
2018-12-21T03:46:02.606Z,90.66
2018-12-21T03:47:02.563Z,91.07
2018-12-21T03:48:02.703Z,90.62
2018-12-21T03:49:03.435Z,91.07
2018-12-21T03:50:03.105Z,90.77
2018-12-21T03:51:02.756Z,91.28
2018-12-21T03:52:02.605Z,91.34
2018-12-21T03:53:02.739Z,91.59
2018-12-21T03:54:03.031Z,91.86
2018-12-21T03:55:02.473Z,91.44
2018-12-21T03:56:03.876Z,92.07
2018-12-21T03:57:02.458Z,91.49
2018-12-21T03:58:02.435Z,92.63
2018-12-21T03:59:02.440Z,92.52
2018-12-21T04:00:03.157Z,92.52
2018-12-21T04:01:02.428Z,92.52
2018-12-21T04:02:02.623Z,92.32
2018-12-21T04:03:02.385Z,92.11
2018-12-21T04:04:02.375Z,92.32
2018-12-21T04:05:02.361Z,92.63
2018-12-21T04:06:02.597Z,92.21
2018-12-21T04:07:02.433Z,92.63
2018-12-21T04:08:02.561Z,92.42
2018-12-21T04:09:02.430Z,92.83
2018-12-21T04:10:02.312Z,92.93
2018-12-21T04:11:02.307Z,93.04
2018-12-21T04:12:02.284Z,93.04
2018-12-21T04:13:03.132Z,93.24
2018-12-21T04:14:02.273Z,93.24
2018-12-21T04:15:03.646Z,93.24
2018-12-21T04:16:02.242Z,93.55
2018-12-21T04:17:02.236Z,93.35
2018-12-21T04:18:02.225Z,93.45
2018-12-21T04:19:02.459Z,93.35
2018-12-21T04:20:02.219Z,93.35
2018-12-21T04:21:02.190Z,93.14
2018-12-21T04:22:02.197Z,93.04
2018-12-21T04:23:02.171Z,93.24
2018-12-21T04:24:02.153Z,93.14
2018-12-21T04:25:06.738Z,93.55
2018-12-21T04:26:02.196Z,93.35
2018-12-21T04:27:02.127Z,93.30
2018-12-21T04:28:02.121Z,93.55
2018-12-21T04:29:02.579Z,93.66
2018-12-21T04:30:02.092Z,93.55
2018-12-21T04:31:02.479Z,93.55
2018-12-21T04:32:02.069Z,93.66
2018-12-21T04:33:02.052Z,94.07
2018-12-21T04:34:02.048Z,93.87
2018-12-21T04:35:02.038Z,93.87
2018-12-21T04:36:02.031Z,94.28
2018-12-21T04:37:02.340Z,94.38
2018-12-21T04:38:02.088Z,94.69
2018-12-21T04:39:01.995Z,94.69
2018-12-21T04:40:02.007Z,95.00
2018-12-21T04:41:02.003Z,94.79
2018-12-21T04:42:01.990Z,95.00
2018-12-21T04:43:02.989Z,95.21
2018-12-21T04:44:01.937Z,95.21
2018-12-21T04:45:01.940Z,94.07
2018-12-21T04:46:01.912Z,95.21
2018-12-21T04:47:01.901Z,94.07
2018-12-21T04:48:02.083Z,95.31
2018-12-21T04:49:01.877Z,95.00
2018-12-21T04:50:01.875Z,95.00
2018-12-21T04:51:01.857Z,94.59
2018-12-21T04:52:01.846Z,95.31
2018-12-21T04:53:01.834Z,95.42
2018-12-21T04:54:02.007Z,95.31
2018-12-21T04:55:01.825Z,95.31
2018-12-21T04:56:01.817Z,95.21
2018-12-21T04:57:01.790Z,95.21
2018-12-21T04:58:02.087Z,95.62
2018-12-21T04:59:02.204Z,95.52
2018-12-21T05:00:01.931Z,95.94
2018-12-21T05:01:01.749Z,96.14
2018-12-21T05:02:01.768Z,95.31
2018-12-21T05:03:02.317Z,95.94
2018-12-21T05:04:02.130Z,95.31
2018-12-21T05:05:01.706Z,96.03
2018-12-21T05:06:01.699Z,95.00
2018-12-21T05:07:01.690Z,96.66
2018-12-21T05:08:01.675Z,95.42
2018-12-21T05:09:01.671Z,95.42
2018-12-21T05:10:01.965Z,95.62
2018-12-21T05:11:01.635Z,95.73
2018-12-21T05:12:01.635Z,95.73
2018-12-21T05:13:01.682Z,95.83
2018-12-21T05:14:01.621Z,95.52
2018-12-21T05:15:01.925Z,95.98
2018-12-21T05:16:01.949Z,96.86
2018-12-21T05:17:01.575Z,96.55
2018-12-21T05:18:01.985Z,96.66
2018-12-21T05:19:01.603Z,96.45
2018-12-21T05:20:01.815Z,96.14
2018-12-21T05:21:01.529Z,96.66
2018-12-21T05:22:01.911Z,96.86
2018-12-21T05:23:01.528Z,96.03
2018-12-21T05:24:01.900Z,96.03
2018-12-21T05:25:01.494Z,96.66
2018-12-21T05:26:01.478Z,95.94
2018-12-21T05:27:01.483Z,96.86
2018-12-21T05:28:01.456Z,96.66
2018-12-21T05:29:01.455Z,96.55
2018-12-21T05:30:01.941Z,96.03
2018-12-21T05:31:01.424Z,96.45
2018-12-21T05:32:01.495Z,96.45
2018-12-21T05:33:01.914Z,96.34
2018-12-21T05:34:01.389Z,96.66
2018-12-21T05:35:01.378Z,96.55
2018-12-21T05:36:01.977Z,96.45
2018-12-21T05:37:01.352Z,96.55
2018-12-21T05:38:02.082Z,96.55
2018-12-21T05:39:02.506Z,96.55
2018-12-21T05:40:02.347Z,96.66
2018-12-21T05:41:01.803Z,96.55
2018-12-21T05:42:01.548Z,96.14
2018-12-21T05:43:03.942Z,95.94
2018-12-21T05:44:02.024Z,96.55
2018-12-21T05:45:01.272Z,96.45
2018-12-21T05:46:16.220Z,96.55
2018-12-21T05:47:01.266Z,96.66
2018-12-21T05:48:01.438Z,96.55
2018-12-21T05:49:01.398Z,96.55
2018-12-21T05:50:07.527Z,96.66
2018-12-21T05:51:02.473Z,96.66
2018-12-21T05:52:01.440Z,96.55
2018-12-21T05:53:01.522Z,96.66
2018-12-21T05:54:01.583Z,96.66
2018-12-21T05:55:03.265Z,96.86
2018-12-21T05:56:01.146Z,96.45
2018-12-21T05:57:01.852Z,96.97
2018-12-21T05:58:01.128Z,96.76
2018-12-21T05:59:01.130Z,96.45
2018-12-21T06:00:01.537Z,96.66
2018-12-21T06:01:02.069Z,96.45
2018-12-21T06:02:01.701Z,96.76
2018-12-21T06:03:01.084Z,96.34
2018-12-21T06:04:04.652Z,96.14
2018-12-21T06:05:02.699Z,96.86
2018-12-21T06:06:01.548Z,96.76
2018-12-21T06:07:01.891Z,96.86
2018-12-21T06:08:01.047Z,97.59
2018-12-21T06:09:01.004Z,97.17
2018-12-21T06:10:00.989Z,96.66
2018-12-21T06:11:01.197Z,96.76
2018-12-21T06:12:00.981Z,96.66
2018-12-21T06:13:02.349Z,97.02
2018-12-21T06:14:01.171Z,97.17
2018-12-21T06:15:00.936Z,96.86
2018-12-21T06:16:03.149Z,96.66
2018-12-21T06:17:01.187Z,96.97
2018-12-21T06:18:00.939Z,97.07
2018-12-21T06:19:04.061Z,96.66
2018-12-21T06:20:06.110Z,96.86
2018-12-21T06:21:01.763Z,96.86
2018-12-21T06:22:00.949Z,96.76
2018-12-21T06:23:09.376Z,97.02
2018-12-21T06:24:01.857Z,96.92
2018-12-21T06:25:01.193Z,96.82
2018-12-21T06:26:00.923Z,96.72
2018-12-21T06:27:01.081Z,96.72
2018-12-21T06:28:01.268Z,96.66
2018-12-21T06:29:01.295Z,96.76
2018-12-21T06:30:00.953Z,96.86
2018-12-21T06:31:00.913Z,96.55
2018-12-21T06:32:00.845Z,96.30
2018-12-21T06:33:00.754Z,96.82
2018-12-21T06:34:00.762Z,96.72
2018-12-21T06:35:00.983Z,96.34
2018-12-21T06:36:00.709Z,96.72
2018-12-21T06:37:00.710Z,96.14
2018-12-21T06:38:00.966Z,96.61
2018-12-21T06:39:00.680Z,96.61
2018-12-21T06:40:00.879Z,96.55
2018-12-21T06:41:01.422Z,96.92
2018-12-21T06:42:00.647Z,96.82
2018-12-21T06:43:01.181Z,96.76
2018-12-21T06:44:01.467Z,96.41
2018-12-21T06:45:00.611Z,96.45
2018-12-21T06:46:02.169Z,96.51
2018-12-21T06:47:21.477Z,96.30
2018-12-21T06:48:00.581Z,96.92
2018-12-21T06:49:00.563Z,96.45
2018-12-21T06:50:00.588Z,96.34
2018-12-21T06:51:00.549Z,96.51
2018-12-21T06:52:00.544Z,96.82
2018-12-21T06:53:01.084Z,96.66
2018-12-21T06:54:01.737Z,96.55
2018-12-21T06:55:04.900Z,96.51
2018-12-21T06:56:00.511Z,96.41
2018-12-21T06:57:00.489Z,96.51
2018-12-21T06:58:00.637Z,96.61
2018-12-21T06:59:13.981Z,96.41
2018-12-21T07:00:00.448Z,96.61
2018-12-21T07:01:00.752Z,95.99
2018-12-21T07:02:00.447Z,96.66
2018-12-21T07:03:00.457Z,96.41
2018-12-21T07:04:00.428Z,96.41
2018-12-21T07:05:02.983Z,96.51
2018-12-21T07:06:01.169Z,96.61
2018-12-21T07:07:01.452Z,96.82
2018-12-21T07:08:00.376Z,96.61
2018-12-21T07:09:01.331Z,96.51
2018-12-21T07:10:00.552Z,96.41
2018-12-21T07:11:04.263Z,96.41
2018-12-21T07:12:00.454Z,96.61
2018-12-21T07:13:00.322Z,96.82
2018-12-21T07:14:00.343Z,96.82
2018-12-21T07:15:00.298Z,96.72
2018-12-21T07:16:00.829Z,96.51
2018-12-21T07:17:00.267Z,96.51
2018-12-21T07:18:00.335Z,96.51
2018-12-21T07:19:01.585Z,96.51
2018-12-21T07:20:00.395Z,96.41
2018-12-21T07:21:00.249Z,96.41
2018-12-21T07:22:01.318Z,96.86
2018-12-21T07:23:00.219Z,96.61
2018-12-21T07:24:00.192Z,96.61
2018-12-21T07:25:00.291Z,96.86
2018-12-21T07:26:02.012Z,97.17
2018-12-21T07:27:00.327Z,96.41
2018-12-21T07:28:00.579Z,96.61
2018-12-21T07:29:00.262Z,96.76
2018-12-21T07:30:00.129Z,97.07
2018-12-21T07:31:00.158Z,96.86
2018-12-21T07:32:00.546Z,96.61
2018-12-21T07:33:00.087Z,96.82
2018-12-21T07:34:00.098Z,96.72
2018-12-21T07:35:00.200Z,96.72
2018-12-21T07:36:08.135Z,96.72
2018-12-21T07:37:01.560Z,96.76
2018-12-21T07:38:00.036Z,96.82
2018-12-21T07:39:00.021Z,96.61
2018-12-21T07:40:00.021Z,96.41
2018-12-21T07:41:00.006Z,96.66
2018-12-21T07:41:59.993Z,96.66
2018-12-21T07:43:00.799Z,96.41
2018-12-21T07:44:00.057Z,96.55
2018-12-21T07:44:59.966Z,96.55
2018-12-21T07:45:59.955Z,96.41
2018-12-21T07:47:01.097Z,96.51
2018-12-21T07:48:11.142Z,96.51
2018-12-21T07:48:59.940Z,96.41
2018-12-21T07:49:59.906Z,96.51
2018-12-21T07:51:00.067Z,96.55
2018-12-21T07:51:59.884Z,96.61
2018-12-21T07:52:59.893Z,96.51
2018-12-21T07:54:00.098Z,95.89
2018-12-21T07:54:59.852Z,95.99
2018-12-21T07:55:59.844Z,95.78
2018-12-21T07:56:59.934Z,95.68
2018-12-21T07:57:59.818Z,95.57
2018-12-21T07:58:59.871Z,96.03
2018-12-21T08:00:01.410Z,95.83
2018-12-21T08:00:59.879Z,95.89
2018-12-21T08:02:00.233Z,95.73
2018-12-21T08:03:00.152Z,95.89
2018-12-21T08:03:59.744Z,95.94
2018-12-21T08:04:59.745Z,95.31
2018-12-21T08:05:59.874Z,95.52
2018-12-21T08:06:59.738Z,95.48
2018-12-21T08:08:01.360Z,95.00
2018-12-21T08:08:59.701Z,95.57
2018-12-21T08:09:59.686Z,95.17
2018-12-21T08:11:00.238Z,95.57
2018-12-21T08:11:59.655Z,95.48
2018-12-21T08:12:59.648Z,94.96
2018-12-21T08:13:59.647Z,95.17
2018-12-21T08:14:59.641Z,95.06
2018-12-21T08:16:05.919Z,95.17
2018-12-21T08:17:01.034Z,95.27
2018-12-21T08:17:59.739Z,94.03
2018-12-21T08:18:59.686Z,94.96
2018-12-21T08:19:59.625Z,94.85
2018-12-21T08:20:59.569Z,94.34
2018-12-21T08:21:59.560Z,94.40
2018-12-21T08:22:59.932Z,94.75
2018-12-21T08:23:59.527Z,94.75
2018-12-21T08:24:59.524Z,94.65
2018-12-21T08:25:59.508Z,94.75
2018-12-21T08:26:59.938Z,94.65
2018-12-21T08:27:59.637Z,94.23
2018-12-21T08:29:04.233Z,94.75
2018-12-21T08:29:59.459Z,94.85
2018-12-21T08:31:00.246Z,93.88
2018-12-21T08:31:59.540Z,94.85
2018-12-21T08:32:59.705Z,93.72
2018-12-21T08:33:59.422Z,94.13
2018-12-21T08:34:59.796Z,93.88
2018-12-21T08:35:59.403Z,93.72
2018-12-21T08:36:59.433Z,93.78
2018-12-21T08:37:59.541Z,94.13
2018-12-21T08:38:59.370Z,94.13
2018-12-21T08:39:59.378Z,93.82
2018-12-21T08:40:59.626Z,93.68
2018-12-21T08:41:59.330Z,93.82
2018-12-21T08:42:59.649Z,93.82
2018-12-21T08:43:59.324Z,93.51
2018-12-21T08:44:59.353Z,93.72
2018-12-21T08:45:59.970Z,93.72
2018-12-21T08:47:02.263Z,93.62
2018-12-21T08:47:59.296Z,93.98
2018-12-21T08:48:59.505Z,93.93
2018-12-21T08:50:01.236Z,93.82
2018-12-21T08:50:59.251Z,93.82
2018-12-21T08:51:59.225Z,93.62
2018-12-21T08:52:59.214Z,94.03
2018-12-21T08:53:59.237Z,94.23
2018-12-21T08:54:59.608Z,93.72
2018-12-21T08:55:59.871Z,93.82
2018-12-21T08:56:59.462Z,93.93
2018-12-21T08:57:59.175Z,93.93
2018-12-21T08:58:59.142Z,93.51
2018-12-21T08:59:59.309Z,93.20
2018-12-21T09:01:01.130Z,93.51
2018-12-21T09:01:59.114Z,93.41
2018-12-21T09:02:59.620Z,92.99
2018-12-21T09:03:59.103Z,93.30
2018-12-21T09:04:59.242Z,92.99
2018-12-21T09:05:59.106Z,92.99
2018-12-21T09:07:01.745Z,93.10
2018-12-21T09:07:59.081Z,93.20
2018-12-21T09:08:59.232Z,93.30
2018-12-21T09:09:59.763Z,93.30
2018-12-21T09:11:00.661Z,93.72
2018-12-21T09:11:59.388Z,93.57
2018-12-21T09:13:00.496Z,93.37
2018-12-21T09:13:59.244Z,92.64
2018-12-21T09:14:59.612Z,92.74
2018-12-21T09:15:59.303Z,92.23
2018-12-21T09:16:59.109Z,92.33
2018-12-21T09:17:59.207Z,92.44
2018-12-21T09:18:59.690Z,92.13
2018-12-21T09:19:59.052Z,92.02
2018-12-21T09:20:59.020Z,91.67
2018-12-21T09:21:59.106Z,91.40
2018-12-21T09:22:59.056Z,91.67
2018-12-21T09:24:01.179Z,91.67
2018-12-21T09:24:59.463Z,91.36
2018-12-21T09:25:59.184Z,91.26
2018-12-21T09:26:58.839Z,90.80
2018-12-21T09:27:59.194Z,90.91
2018-12-21T09:28:59.656Z,90.74
2018-12-21T09:29:58.815Z,90.19
2018-12-21T09:31:02.562Z,90.43
2018-12-21T09:32:05.185Z,90.12
2018-12-21T09:32:58.775Z,90.33
2018-12-21T09:33:58.771Z,90.39
2018-12-21T09:34:58.751Z,90.28
2018-12-21T09:35:59.072Z,89.98
2018-12-21T09:36:59.427Z,89.56
2018-12-21T09:37:59.588Z,89.56
2018-12-21T09:38:58.724Z,89.87
2018-12-21T09:39:58.691Z,89.36
2018-12-21T09:40:58.802Z,89.56
2018-12-21T09:41:59.645Z,89.77
2018-12-21T09:42:58.710Z,88.95
2018-12-21T09:43:58.663Z,89.05
2018-12-21T09:44:58.636Z,89.15
2018-12-21T09:45:59.195Z,88.84
2018-12-21T09:46:58.618Z,89.36
2018-12-21T09:47:59.313Z,89.11
2018-12-21T09:48:58.621Z,88.74
2018-12-21T09:49:58.645Z,88.59
2018-12-21T09:50:58.574Z,88.43
2018-12-21T09:51:58.563Z,88.64
2018-12-21T09:53:00.370Z,88.95
2018-12-21T09:53:59.022Z,88.64
2018-12-21T09:54:58.845Z,88.74
2018-12-21T09:55:58.600Z,88.80
2018-12-21T09:56:58.656Z,88.70
2018-12-21T09:57:58.516Z,88.90
2018-12-21T09:58:58.484Z,88.80
2018-12-21T09:59:59.274Z,88.90
2018-12-21T10:00:58.488Z,88.70
2018-12-21T10:01:58.493Z,88.49
2018-12-21T10:02:58.448Z,88.18
2018-12-21T10:03:58.509Z,88.08
2018-12-21T10:04:59.231Z,87.87
2018-12-21T10:05:58.415Z,87.98
2018-12-21T10:06:58.425Z,87.52
2018-12-21T10:07:58.855Z,88.29
2018-12-21T10:08:58.658Z,87.77
2018-12-21T10:09:58.375Z,88.14
2018-12-21T10:10:59.676Z,88.24
2018-12-21T10:11:58.844Z,87.63
2018-12-21T10:12:58.655Z,88.04
2018-12-21T10:14:00.522Z,87.11
2018-12-21T10:14:58.773Z,88.24
2018-12-21T10:15:58.602Z,88.14
2018-12-21T10:16:59.780Z,88.14
2018-12-21T10:17:58.293Z,87.63
2018-12-21T10:18:58.270Z,87.11
2018-12-21T10:19:58.489Z,87.73
2018-12-21T10:20:58.250Z,87.21
2018-12-21T10:21:58.241Z,87.01
2018-12-21T10:22:58.806Z,87.32
2018-12-21T10:23:58.213Z,87.46
2018-12-21T10:25:05.767Z,87.52
2018-12-21T10:25:58.200Z,87.32
2018-12-21T10:26:58.186Z,87.21
2018-12-21T10:27:58.210Z,87.01
2018-12-21T10:28:58.603Z,86.90
2018-12-21T10:29:58.277Z,86.90
2018-12-21T10:30:58.498Z,86.70
2018-12-21T10:31:58.162Z,86.90
2018-12-21T10:32:58.118Z,86.49
2018-12-21T10:33:58.118Z,86.49
2018-12-21T10:35:02.724Z,86.80
2018-12-21T10:35:58.641Z,86.49
2018-12-21T10:37:00.418Z,87.01
2018-12-21T10:37:58.069Z,87.01
2018-12-21T10:38:58.046Z,86.80
2018-12-21T10:39:58.046Z,86.35
2018-12-21T10:40:59.412Z,86.49
2018-12-21T10:41:58.019Z,86.15
2018-12-21T10:42:58.706Z,86.24
2018-12-21T10:43:57.999Z,85.97
2018-12-21T10:44:58.002Z,86.24
2018-12-21T10:45:57.983Z,86.04
2018-12-21T10:46:58.786Z,86.04
2018-12-21T10:48:00.068Z,85.94
2018-12-21T10:48:58.176Z,86.45
2018-12-21T10:49:58.366Z,86.35
2018-12-21T10:50:57.928Z,85.94
2018-12-21T10:51:57.935Z,85.73
2018-12-21T10:52:58.713Z,85.83
2018-12-21T10:53:57.911Z,85.94
2018-12-21T10:54:57.900Z,85.73
2018-12-21T10:55:59.875Z,85.94
2018-12-21T10:56:57.864Z,85.94
2018-12-21T10:57:57.841Z,86.35
2018-12-21T10:59:00.671Z,86.35
2018-12-21T10:59:57.994Z,86.15
2018-12-21T11:00:58.022Z,86.04
2018-12-21T11:01:57.867Z,86.15
2018-12-21T11:02:57.793Z,86.08
2018-12-21T11:03:57.898Z,86.15
2018-12-21T11:04:57.944Z,86.08
2018-12-21T11:05:58.148Z,86.24
2018-12-21T11:06:58.391Z,86.04
2018-12-21T11:07:57.935Z,86.15
2018-12-21T11:08:57.723Z,86.29
2018-12-21T11:09:57.713Z,86.60
2018-12-21T11:10:58.114Z,86.90
2018-12-21T11:11:57.817Z,86.60
2018-12-21T11:12:58.120Z,86.39
2018-12-21T11:13:58.162Z,86.60
2018-12-21T11:14:59.671Z,86.18
2018-12-21T11:15:57.653Z,86.29
2018-12-21T11:17:03.377Z,86.39
2018-12-21T11:17:57.627Z,86.29
2018-12-21T11:18:57.722Z,86.49
2018-12-21T11:19:57.605Z,86.29
2018-12-21T11:20:57.644Z,86.29
2018-12-21T11:21:57.589Z,86.15
2018-12-21T11:22:58.552Z,85.94
2018-12-21T11:23:57.571Z,85.83
2018-12-21T11:24:57.565Z,85.94
2018-12-21T11:25:57.543Z,85.94
2018-12-21T11:26:57.535Z,85.63
2018-12-21T11:27:57.547Z,86.24
2018-12-21T11:28:58.206Z,85.42
2018-12-21T11:29:57.640Z,85.01
2018-12-21T11:30:57.489Z,85.73
2018-12-21T11:31:57.489Z,85.94
2018-12-21T11:32:57.476Z,85.63
2018-12-21T11:33:57.460Z,85.83
2018-12-21T11:34:57.691Z,85.63
2018-12-21T11:35:57.511Z,85.52
2018-12-21T11:36:58.500Z,86.04
2018-12-21T11:37:59.908Z,85.42
2018-12-21T11:38:58.294Z,85.73
2018-12-21T11:39:57.546Z,85.83
2018-12-21T11:40:59.532Z,85.22
2018-12-21T11:41:57.378Z,85.22
2018-12-21T11:42:57.347Z,85.94
2018-12-21T11:43:57.397Z,85.63
2018-12-21T11:44:57.344Z,86.35
2018-12-21T11:45:57.322Z,86.24
2018-12-21T11:46:57.537Z,86.35
2018-12-21T11:48:04.419Z,85.73
2018-12-21T11:48:57.358Z,85.67
2018-12-21T11:49:57.351Z,85.67
2018-12-21T11:50:57.349Z,86.35
2018-12-21T11:51:57.275Z,86.08
2018-12-21T11:52:57.962Z,86.15
2018-12-21T11:53:57.228Z,86.39
2018-12-21T11:54:59.031Z,85.94
2018-12-21T11:55:57.219Z,86.04
2018-12-21T11:56:57.264Z,86.35
2018-12-21T11:57:57.210Z,86.24
2018-12-21T11:59:02.116Z,86.39
2018-12-21T11:59:57.170Z,86.35
2018-12-21T12:00:57.158Z,86.08
2018-12-21T12:01:57.159Z,86.29
2018-12-21T12:02:57.148Z,86.49
2018-12-21T12:03:57.230Z,86.39
2018-12-21T12:04:58.923Z,86.60
2018-12-21T12:05:57.383Z,86.29
2018-12-21T12:06:57.113Z,86.29
2018-12-21T12:07:57.590Z,86.35
2018-12-21T12:09:06.044Z,86.45
2018-12-21T12:09:58.062Z,86.18
2018-12-21T12:11:02.652Z,86.55
2018-12-21T12:11:57.459Z,86.49
2018-12-21T12:12:57.257Z,86.60
2018-12-21T12:13:57.350Z,86.45
2018-12-21T12:14:57.465Z,86.45
2018-12-21T12:15:57.089Z,86.24
2018-12-21T12:16:58.721Z,86.70
2018-12-21T12:17:57.076Z,86.45
2018-12-21T12:18:57.090Z,86.70
2018-12-21T12:19:57.724Z,87.07
2018-12-21T12:20:57.080Z,87.21
2018-12-21T12:21:57.080Z,87.11
2018-12-21T12:22:57.538Z,87.48
2018-12-21T12:23:57.089Z,88.10
2018-12-21T12:24:57.169Z,88.04
2018-12-21T12:25:57.043Z,88.10
2018-12-21T12:26:57.209Z,87.83
2018-12-21T12:27:57.380Z,88.04
2018-12-21T12:28:57.721Z,87.99
2018-12-21T12:29:56.854Z,87.52
2018-12-21T12:30:56.910Z,88.35
2018-12-21T12:31:56.825Z,88.45
2018-12-21T12:32:56.828Z,88.45
2018-12-21T12:33:56.806Z,88.65
2018-12-21T12:34:57.521Z,88.35
2018-12-21T12:35:56.772Z,88.65
2018-12-21T12:36:58.101Z,88.45
2018-12-21T12:37:57.745Z,88.86
2018-12-21T12:38:56.768Z,88.86
2018-12-21T12:39:56.734Z,88.96
2018-12-21T12:41:06.515Z,89.69
2018-12-21T12:41:58.318Z,89.38
2018-12-21T12:42:56.705Z,89.38
2018-12-21T12:43:57.235Z,90.31
2018-12-21T12:44:56.861Z,90.10
2018-12-21T12:45:56.747Z,90.41
2018-12-21T12:46:57.263Z,90.86
2018-12-21T12:47:57.774Z,91.28
2018-12-21T12:48:56.669Z,91.28
2018-12-21T12:49:56.627Z,90.97
2018-12-21T12:50:56.608Z,91.58
2018-12-21T12:51:56.600Z,91.38